Time;durP1;ratioP1;P1;durP2;ratioP2;P2;SDS_P1;SDS_P2;PMS_P1;PMS_P2;Temp;Humidity;BMP_temperature;BMP_pressure;BME280_temperature;BME280_humidity;BME280_pressure;Samples;Min_cycle;Max_cycle;Signal;HPM_P1;HPM_P2
2022/10/25 00:01:59;;;;;;;8.65;3.67;;;12.50;99.90;;;;;;7402350;19;19914;-86
2022/10/25 00:04:49;;;;;;;10.35;4.28;;;12.50;99.90;;;;;;7404403;19;19930;-86
2022/10/25 00:07:18;;;;;;;6.80;3.22;;;12.50;99.90;;;;;;7404543;19;20380;-85
2022/10/25 00:09:49;;;;;;;7.38;2.50;;;12.50;99.90;;;;;;7405106;19;19914;-86
2022/10/25 00:12:18;;;;;;;6.15;3.50;;;12.60;99.90;;;;;;7405439;19;19994;-86
2022/10/25 00:14:47;;;;;;;6.47;2.10;;;12.60;99.90;;;;;;7405797;19;19937;-85
2022/10/25 00:17:16;;;;;;;8.82;3.63;;;12.70;99.90;;;;;;7407269;19;19930;-86
2022/10/25 00:19:45;;;;;;;10.02;4.25;;;12.70;99.90;;;;;;7405726;19;20349;-86
2022/10/25 00:22:13;;;;;;;9.63;3.88;;;12.70;99.90;;;;;;7405954;19;19998;-85
2022/10/25 00:24:42;;;;;;;10.10;3.42;;;12.70;99.90;;;;;;7406160;19;19919;-85
2022/10/25 00:27:14;;;;;;;13.55;4.68;;;12.70;99.90;;;;;;7404632;19;19919;-86
2022/10/25 00:29:43;;;;;;;9.52;4.93;;;12.60;99.90;;;;;;7404690;19;19921;-86
2022/10/25 00:32:11;;;;;;;10.57;4.32;;;12.60;99.90;;;;;;7405237;19;19915;-84
2022/10/25 00:34:42;;;;;;;10.60;4.53;;;12.50;99.90;;;;;;7403172;19;20246;-84
2022/10/25 00:37:11;;;;;;;12.00;5.93;;;12.50;99.90;;;;;;7403560;19;19981;-86
2022/10/25 00:39:40;;;;;;;11.55;5.40;;;12.50;99.90;;;;;;7404963;19;19930;-85
2022/10/25 00:42:10;;;;;;;13.05;6.22;;;12.50;99.90;;;;;;7401864;19;19926;-85
2022/10/25 00:44:53;;;;;;;12.52;5.32;;;12.50;99.90;;;;;;7405665;19;19939;-86
2022/10/25 00:47:44;;;;;;;14.52;6.07;;;12.50;99.90;;;;;;7404460;19;19929;-86
2022/10/25 00:50:22;;;;;;;11.38;5.13;;;12.50;99.90;;;;;;7404125;19;19918;-86
2022/10/25 00:52:55;;;;;;;13.20;5.75;;;12.50;99.90;;;;;;7405837;19;19918;-85
2022/10/25 00:55:27;;;;;;;13.30;6.22;;;12.50;99.90;;;;;;7405092;19;19962;-86
2022/10/25 00:58:00;;;;;;;13.07;6.43;;;12.50;99.90;;;;;;7403752;19;20345;-86
2022/10/25 01:00:32;;;;;;;14.63;7.32;;;12.50;99.90;;;;;;7404712;19;19938;-85
2022/10/25 01:03:01;;;;;;;10.88;4.65;;;12.50;99.90;;;;;;7411975;19;20358;-86
2022/10/25 01:05:30;;;;;;;15.80;6.60;;;12.50;99.90;;;;;;7410955;19;19974;-85
2022/10/25 01:08:00;;;;;;;17.73;7.25;;;12.50;99.90;;;;;;7411910;19;19917;-85
2022/10/25 01:10:28;;;;;;;13.68;6.15;;;12.50;99.90;;;;;;7410297;19;19925;-86
2022/10/25 01:12:57;;;;;;;16.58;7.18;;;12.40;99.90;;;;;;7409815;19;20355;-86
2022/10/25 01:15:36;;;;;;;12.23;5.85;;;12.40;99.90;;;;;;7411737;19;19927;-85
2022/10/25 01:18:16;;;;;;;15.70;8.32;;;12.30;99.90;;;;;;7411773;19;20268;-85
2022/10/25 01:21:17;;;;;;;15.00;5.80;;;12.40;99.90;;;;;;7411254;19;19930;-86
2022/10/25 01:24:09;;;;;;;9.63;4.55;;;12.40;99.90;;;;;;7409742;19;19918;-86
2022/10/25 01:27:13;;;;;;;14.80;8.05;;;12.50;99.90;;;;;;7409423;19;20248;-85
2022/10/25 01:30:04;;;;;;;12.80;6.07;;;12.60;99.90;;;;;;7410709;19;19915;-86
2022/10/25 01:32:43;;;;;;;15.07;7.47;;;12.70;99.90;;;;;;7410733;19;20341;-86
2022/10/25 01:35:20;;;;;;;15.02;6.50;;;12.70;99.90;;;;;;7411607;19;20364;-85
2022/10/25 01:38:03;;;;;;;9.40;4.85;;;12.80;99.90;;;;;;7411223;19;19947;-85
2022/10/25 01:40:43;;;;;;;20.30;9.18;;;13.00;99.90;;;;;;7409590;19;19978;-85
2022/10/25 01:43:20;;;;;;;17.80;8.52;;;13.10;99.90;;;;;;7410983;19;19966;-85
2022/10/25 01:45:58;;;;;;;17.15;7.75;;;13.20;99.90;;;;;;7409230;19;20260;-85
2022/10/25 01:48:34;;;;;;;20.38;8.70;;;13.10;99.90;;;;;;7412942;19;20329;-85
2022/10/25 01:51:10;;;;;;;16.15;7.15;;;13.20;99.90;;;;;;7408269;19;19918;-86
2022/10/25 01:53:47;;;;;;;16.48;6.72;;;13.20;99.90;;;;;;7411092;19;19922;-86
2022/10/25 01:56:23;;;;;;;10.38;5.22;;;13.20;99.90;;;;;;7409734;19;19932;-85
2022/10/25 01:59:20;;;;;;;16.13;9.15;;;13.30;99.90;;;;;;7406978;19;19930;-85
2022/10/25 02:02:03;;;;;;;13.52;6.93;;;13.40;99.90;;;;;;7409413;19;20396;-85
2022/10/25 02:04:44;;;;;;;14.43;7.18;;;13.40;99.90;;;;;;7411054;19;20348;-86
2022/10/25 02:07:21;;;;;;;15.10;7.65;;;13.50;99.90;;;;;;7407635;19;20022;-86
2022/10/25 02:10:01;;;;;;;15.93;5.70;;;13.50;99.90;;;;;;7409387;19;19927;-86
2022/10/25 02:12:34;;;;;;;14.52;8.65;;;13.60;99.90;;;;;;7405854;19;19915;-86
2022/10/25 02:15:10;;;;;;;12.57;7.22;;;13.60;99.90;;;;;;7409138;19;19926;-86
2022/10/25 02:17:44;;;;;;;16.30;7.28;;;13.60;99.90;;;;;;7410713;19;20337;-86
2022/10/25 02:20:19;;;;;;;20.85;8.80;;;13.70;99.90;;;;;;7408441;19;19915;-87
2022/10/25 02:22:48;;;;;;;10.65;4.55;;;13.70;99.90;;;;;;7406899;19;20301;-86
2022/10/25 02:25:18;;;;;;;15.75;7.43;;;13.70;99.90;;;;;;7406479;19;19923;-86
2022/10/25 02:27:47;;;;;;;;;;;13.70;99.90;;;;;;7413216;19;19921;-86
2022/10/25 02:30:17;;;;;;;10.57;5.13;;;13.80;99.90;;;;;;7409253;19;19917;-86
2022/10/25 02:32:46;;;;;;;12.10;6.20;;;13.80;99.90;;;;;;7405210;19;19917;-86
2022/10/25 02:35:20;;;;;;;13.02;6.63;;;13.80;99.90;;;;;;7406740;19;19926;-86
2022/10/25 02:37:49;;;;;;;18.52;9.38;;;13.80;99.90;;;;;;7406648;19;19918;-86
2022/10/25 02:40:18;;;;;;;13.80;6.22;;;13.70;99.90;;;;;;7408505;19;19928;-87
2022/10/25 02:42:47;;;;;;;15.07;8.27;;;13.90;99.90;;;;;;7404847;19;19915;-86
2022/10/25 02:45:16;;;;;;;9.40;5.22;;;13.90;99.90;;;;;;7408558;19;20348;-88
2022/10/25 02:47:45;;;;;;;10.38;4.68;;;13.90;99.90;;;;;;7408864;19;19915;-87
2022/10/25 02:50:14;;;;;;;14.85;7.00;;;13.80;99.90;;;;;;7408757;19;20003;-87
2022/10/25 02:52:46;;;;;;;;;;;13.80;99.90;;;;;;7408404;19;20333;-87
2022/10/25 02:55:15;;;;;;;12.60;6.57;;;13.80;99.90;;;;;;7406243;19;19922;-87
2022/10/25 02:57:44;;;;;;;12.75;6.80;;;13.80;99.90;;;;;;7406698;19;19906;-87
2022/10/25 03:00:14;;;;;;;11.45;7.13;;;13.90;99.90;;;;;;7406469;19;20070;-87
2022/10/25 03:02:43;;;;;;;12.50;5.72;;;14.00;99.90;;;;;;7404231;19;19914;-86
2022/10/25 03:05:12;;;;;;;4.90;2.00;;;14.00;99.90;;;;;;7404254;19;19918;-85
2022/10/25 03:07:41;;;;;;;9.75;3.03;;;14.20;99.90;;;;;;7406819;19;19925;-87
2022/10/25 03:10:13;;;;;;;10.48;5.15;;;14.50;99.90;;;;;;7409346;19;19929;-87
2022/10/25 03:12:42;;;;;;;8.95;4.13;;;14.60;99.90;;;;;;7406006;19;20284;-87
2022/10/25 03:15:12;;;;;;;5.70;2.50;;;14.50;99.90;;;;;;7408388;19;19918;-88
2022/10/25 03:17:40;;;;;;;9.18;5.32;;;14.60;99.90;;;;;;7405627;19;19939;-87
2022/10/25 03:20:11;;;;;;;10.02;4.22;;;14.60;99.90;;;;;;7406587;19;19914;-87
2022/10/25 03:22:39;;;;;;;13.95;7.10;;;14.50;99.90;;;;;;7406697;19;19938;-86
2022/10/25 03:25:09;;;;;;;11.20;5.40;;;14.40;99.90;;;;;;7406015;19;19929;-87
2022/10/25 03:27:41;;;;;;;11.10;5.88;;;14.30;99.90;;;;;;7408757;19;20281;-87
2022/10/25 03:30:11;;;;;;;7.70;4.32;;;14.30;99.90;;;;;;7406392;19;19919;-87
2022/10/25 03:32:39;;;;;;;;;;;14.20;99.90;;;;;;7408777;19;19935;-87
2022/10/25 03:35:09;;;;;;;12.00;6.55;;;14.20;99.90;;;;;;7408663;19;19922;-87
2022/10/25 03:37:38;;;;;;;13.65;7.22;;;14.20;99.90;;;;;;7405441;19;19923;-87
2022/10/25 03:40:09;;;;;;;15.52;7.03;;;14.10;99.90;;;;;;7409590;19;19914;-87
2022/10/25 03:42:38;;;;;;;13.52;6.78;;;14.00;99.90;;;;;;7405045;19;19943;-86
2022/10/25 03:45:10;;;;;;;15.43;6.25;;;14.00;99.90;;;;;;7404544;19;19981;-86
2022/10/25 03:47:39;;;;;;;13.65;6.93;;;13.90;99.90;;;;;;7405747;19;20012;-87
2022/10/25 03:50:10;;;;;;;15.23;6.95;;;13.90;99.90;;;;;;7407908;19;19925;-87
2022/10/25 03:52:39;;;;;;;11.88;7.30;;;13.80;99.90;;;;;;7407057;19;19921;-87
2022/10/25 03:55:10;;;;;;;12.88;5.40;;;13.80;99.90;;;;;;7408043;19;20352;-86
2022/10/25 03:57:38;;;;;;;11.75;5.93;;;13.80;99.90;;;;;;7406914;19;19924;-87
2022/10/25 04:00:11;;;;;;;9.82;4.50;;;13.80;99.90;;;;;;7405085;19;19918;-87
2022/10/25 04:02:40;;;;;;;7.43;3.63;;;13.80;99.90;;;;;;7406773;19;19936;-87
2022/10/25 04:05:10;;;;;;;7.28;3.63;;;13.90;99.90;;;;;;7406267;19;19925;-87
2022/10/25 04:07:39;;;;;;;7.15;4.32;;;13.90;99.90;;;;;;7406142;19;19923;-87
2022/10/25 04:10:09;;;;;;;9.90;4.57;;;14.00;99.90;;;;;;7407242;19;19918;-87
2022/10/25 04:12:37;;;;;;;15.27;6.28;;;14.10;99.90;;;;;;7405115;19;19986;-86
2022/10/25 04:15:10;;;;;;;10.25;3.83;;;14.10;99.90;;;;;;7407977;19;19930;-87
2022/10/25 04:17:39;;;;;;;7.72;3.65;;;14.10;99.90;;;;;;7406546;19;19919;-87
2022/10/25 04:20:09;;;;;;;11.02;4.80;;;14.10;99.90;;;;;;7406341;19;19915;-88
2022/10/25 04:22:38;;;;;;;12.07;5.43;;;14.10;99.90;;;;;;7405211;19;19924;-87
2022/10/25 04:25:08;;;;;;;13.98;6.45;;;14.10;99.90;;;;;;7406762;19;19918;-86
2022/10/25 04:27:37;;;;;;;9.88;5.18;;;14.10;99.90;;;;;;7406857;19;19918;-86
2022/10/25 04:30:07;;;;;;;13.73;5.45;;;14.10;99.90;;;;;;7403370;19;19918;-86
2022/10/25 04:32:38;;;;;;;14.27;5.75;;;14.10;99.90;;;;;;7405915;19;20343;-85
2022/10/25 04:35:08;;;;;;;10.23;3.70;;;14.10;99.90;;;;;;7410484;19;19982;-86
2022/10/25 04:37:37;;;;;;;8.73;4.30;;;14.10;99.90;;;;;;7410517;19;19930;-86
2022/10/25 04:40:06;;;;;;;12.45;4.32;;;14.10;99.90;;;;;;7413123;19;19922;-86
2022/10/25 04:42:35;;;;;;;;;;;14.10;99.90;;;;;;7410992;19;20266;-86
2022/10/25 04:45:05;;;;;;;9.98;5.07;;;14.10;99.90;;;;;;7410401;19;19911;-86
2022/10/25 04:47:34;;;;;;;9.48;4.68;;;14.00;99.90;;;;;;7412738;19;19941;-87
2022/10/25 04:50:06;;;;;;;12.32;5.78;;;14.00;99.90;;;;;;7412509;19;20323;-86
2022/10/25 04:52:35;;;;;;;5.60;2.15;;;14.10;99.90;;;;;;7410134;19;20002;-86
2022/10/25 04:55:04;;;;;;;13.77;4.32;;;14.00;99.90;;;;;;7409799;19;19974;-86
2022/10/25 04:57:34;;;;;;;13.55;5.90;;;14.10;99.90;;;;;;7412358;19;19919;-86
2022/10/25 05:00:03;;;;;;;8.93;4.25;;;14.10;99.90;;;;;;7408999;19;20371;-87
2022/10/25 05:02:32;;;;;;;10.25;4.45;;;14.00;99.90;;;;;;7408500;19;19935;-86
2022/10/25 05:05:00;;;;;;;10.88;5.07;;;13.90;99.90;;;;;;7413548;19;19918;-87
2022/10/25 05:07:32;;;;;;;11.27;4.85;;;13.80;99.90;;;;;;7411568;19;19925;-86
2022/10/25 05:10:01;;;;;;;8.50;5.10;;;13.80;99.90;;;;;;7411090;19;20057;-87
2022/10/25 05:12:30;;;;;;;11.02;4.63;;;13.70;99.90;;;;;;7410082;19;19929;-86
2022/10/25 05:14:59;;;;;;;7.13;3.33;;;13.70;99.90;;;;;;7413421;19;19926;-86
2022/10/25 05:17:27;;;;;;;16.35;5.22;;;13.70;99.90;;;;;;7410126;19;20345;-86
2022/10/25 05:19:56;;;;;;;10.23;4.68;;;13.70;99.90;;;;;;7410656;19;19922;-85
2022/10/25 05:22:25;;;;;;;12.35;4.40;;;13.60;99.90;;;;;;7410979;19;20459;-85
2022/10/25 05:24:57;;;;;;;10.43;4.32;;;13.60;99.90;;;;;;7410364;19;19930;-85
2022/10/25 05:27:26;;;;;;;9.95;4.95;;;13.70;99.90;;;;;;7410270;19;19982;-86
2022/10/25 05:29:55;;;;;;;11.27;4.78;;;13.70;99.90;;;;;;7408794;19;19922;-86
2022/10/25 05:32:24;;;;;;;8.05;3.55;;;13.60;99.90;;;;;;7405219;19;19918;-86
2022/10/25 05:34:52;;;;;;;11.48;4.88;;;13.60;99.90;;;;;;7412525;19;20285;-86
2022/10/25 05:37:21;;;;;;;11.80;3.40;;;13.60;99.90;;;;;;7406926;19;19930;-85
2022/10/25 05:39:50;;;;;;;17.38;6.22;;;13.60;99.90;;;;;;7412241;19;19927;-86
2022/10/25 05:42:22;;;;;;;17.88;5.60;;;13.50;99.90;;;;;;7407724;19;19939;-86
2022/10/25 05:44:51;;;;;;;16.27;5.93;;;13.50;99.90;;;;;;7408910;19;19919;-86
2022/10/25 05:47:20;;;;;;;19.00;7.65;;;13.40;99.90;;;;;;7406774;19;19927;-85
2022/10/25 05:49:48;;;;;;;23.23;6.03;;;13.30;99.90;;;;;;7408653;19;19917;-86
2022/10/25 05:52:17;;;;;;;19.08;8.02;;;13.30;99.90;;;;;;7407330;19;20396;-85
2022/10/25 05:54:46;;;;;;;12.95;5.75;;;13.20;99.90;;;;;;7409179;19;19981;-86
2022/10/25 05:57:15;;;;;;;17.50;6.72;;;13.20;99.90;;;;;;7409636;19;20348;-85
2022/10/25 05:59:47;;;;;;;9.32;3.33;;;13.30;99.90;;;;;;7406491;19;19914;-86
2022/10/25 06:02:16;;;;;;;8.38;3.90;;;13.30;99.90;;;;;;7407807;19;19918;-86
2022/10/25 06:04:45;;;;;;;17.63;6.55;;;13.30;99.90;;;;;;7409328;19;19935;-86
2022/10/25 06:07:14;;;;;;;17.67;6.45;;;13.30;99.90;;;;;;7407924;19;19929;-86
2022/10/25 06:09:43;;;;;;;17.33;6.95;;;13.30;99.90;;;;;;7408691;19;19923;-86
2022/10/25 06:12:12;;;;;;;17.73;8.15;;;13.20;99.90;;;;;;7411687;19;19982;-86
2022/10/25 06:14:41;;;;;;;19.50;6.43;;;13.20;99.90;;;;;;7407115;19;19940;-86
2022/10/25 06:17:14;;;;;;;19.75;8.85;;;13.10;99.90;;;;;;7408139;19;19925;-86
2022/10/25 06:19:43;;;;;;;13.60;7.55;;;13.10;99.90;;;;;;7409514;19;20336;-85
2022/10/25 06:22:12;;;;;;;16.63;7.53;;;13.00;99.90;;;;;;7408607;19;19922;-85
2022/10/25 06:24:41;;;;;;;18.00;7.50;;;13.00;99.90;;;;;;7409387;19;19989;-86
2022/10/25 06:27:10;;;;;;;16.05;6.93;;;13.00;99.90;;;;;;7409498;19;19942;-86
2022/10/25 06:29:38;;;;;;;13.27;6.18;;;12.90;99.90;;;;;;7409517;19;19930;-86
2022/10/25 06:32:07;;;;;;;17.58;6.90;;;12.90;99.90;;;;;;7407980;19;19925;-86
2022/10/25 06:34:39;;;;;;;20.98;6.25;;;13.00;99.90;;;;;;7405527;19;19939;-86
2022/10/25 06:37:08;;;;;;;17.58;6.45;;;13.00;99.90;;;;;;7401176;19;19925;-85
2022/10/25 06:39:37;;;;;;;18.60;7.93;;;13.00;99.90;;;;;;7409741;19;20255;-86
2022/10/25 06:42:06;;;;;;;21.75;8.23;;;13.10;99.90;;;;;;7409303;19;19918;-86
2022/10/25 06:44:35;;;;;;;13.90;6.78;;;13.10;99.90;;;;;;7407943;19;19918;-87
2022/10/25 06:47:03;;;;;;;16.02;6.18;;;13.20;99.90;;;;;;7408923;19;19918;-85
2022/10/25 06:49:32;;;;;;;13.10;5.40;;;13.20;99.90;;;;;;7407472;19;19925;-85
2022/10/25 06:52:04;;;;;;;8.25;3.25;;;13.30;99.90;;;;;;7409440;19;20282;-86
2022/10/25 06:54:32;;;;;;;12.38;5.85;;;13.40;99.90;;;;;;7408989;19;19939;-86
2022/10/25 06:57:01;;;;;;;11.00;5.78;;;13.40;99.90;;;;;;7408780;19;19922;-86
2022/10/25 06:59:30;;;;;;;11.88;3.50;;;13.50;99.90;;;;;;7405270;19;19915;-86
2022/10/25 07:02:00;;;;;;;11.65;5.22;;;13.50;99.90;;;;;;7410013;19;19926;-86
2022/10/25 07:04:31;;;;;;;13.23;5.43;;;13.50;99.90;;;;;;7406040;19;20548;-86
2022/10/25 07:07:02;;;;;;;6.78;3.63;;;13.60;99.90;;;;;;7407670;19;19918;-86
2022/10/25 07:09:31;;;;;;;12.48;3.10;;;13.70;99.90;;;;;;7408136;19;19919;-86
2022/10/25 07:12:00;;;;;;;7.57;3.28;;;13.90;99.90;;;;;;7408568;19;19926;-85
2022/10/25 07:14:29;;;;;;;9.55;3.40;;;13.90;99.90;;;;;;7408676;19;19923;-86
2022/10/25 07:16:59;;;;;;;5.55;2.45;;;14.10;99.90;;;;;;7407708;19;20367;-86
2022/10/25 07:19:28;;;;;;;7.15;2.05;;;14.20;99.90;;;;;;7408087;19;20348;-86
2022/10/25 07:21:57;;;;;;;4.85;1.80;;;14.40;99.90;;;;;;7407596;19;19911;-86
2022/10/25 07:24:28;;;;;;;8.98;2.78;;;15.20;99.90;;;;;;7407976;19;19910;-86
2022/10/25 07:26:57;;;;;;;7.63;2.95;;;15.30;99.90;;;;;;7409111;19;19918;-86
2022/10/25 07:29:26;;;;;;;7.13;2.53;;;15.20;99.90;;;;;;7406454;19;19918;-86
2022/10/25 07:31:55;;;;;;;11.07;3.47;;;15.10;99.90;;;;;;7408285;19;19925;-86
2022/10/25 07:34:27;;;;;;;7.72;2.78;;;15.20;99.90;;;;;;7407364;19;19928;-86
2022/10/25 07:36:56;;;;;;;10.18;3.17;;;15.50;99.90;;;;;;7406709;19;19922;-87
2022/10/25 07:39:27;;;;;;;8.77;3.10;;;15.60;99.90;;;;;;7408963;19;19919;-87
2022/10/25 07:41:56;;;;;;;14.80;4.32;;;15.70;99.90;;;;;;7404858;19;20341;-87
2022/10/25 07:44:25;;;;;;;10.45;2.28;;;15.60;99.90;;;;;;7403673;19;19922;-87
2022/10/25 07:46:54;;;;;;;6.03;2.45;;;15.40;99.90;;;;;;7408252;19;19923;-86
2022/10/25 07:49:23;;;;;;;10.75;3.83;;;15.40;99.90;;;;;;7406962;19;19922;-87
2022/10/25 07:51:52;;;;;;;7.65;3.17;;;15.20;99.90;;;;;;7406005;19;19936;-86
2022/10/25 07:54:21;;;;;;;7.90;3.05;;;15.20;99.90;;;;;;7404837;19;19919;-86
2022/10/25 07:56:52;;;;;;;8.32;3.42;;;15.10;99.90;;;;;;7408270;19;19919;-87
2022/10/25 07:59:21;;;;;;;6.88;3.08;;;15.10;99.90;;;;;;7405611;19;19921;-87
2022/10/25 08:01:50;;;;;;;8.15;2.42;;;15.10;99.90;;;;;;7406739;19;20407;-87
2022/10/25 08:04:20;;;;;;;12.10;3.55;;;15.20;99.90;;;;;;7403342;19;19922;-87
2022/10/25 08:06:49;;;;;;;4.47;2.28;;;15.30;99.90;;;;;;7406539;19;19918;-87
2022/10/25 08:09:18;;;;;;;7.85;3.05;;;15.20;99.90;;;;;;7403343;19;19922;-87
2022/10/25 08:11:47;;;;;;;10.48;2.88;;;15.30;99.90;;;;;;7408792;19;19917;-91
2022/10/25 08:14:18;;;;;;;16.45;1.65;;;15.30;99.90;;;;;;7404458;19;19930;-87
2022/10/25 08:16:47;;;;;;;11.23;2.97;;;15.40;99.90;;;;;;7408106;19;19942;-87
2022/10/25 08:19:16;;;;;;;11.98;2.97;;;15.60;99.90;;;;;;7400304;19;20014;-88
2022/10/25 08:21:45;;;;;;;10.02;2.38;;;15.60;99.90;;;;;;7406732;19;20018;-87
2022/10/25 08:24:14;;;;;;;7.53;1.67;;;15.70;99.90;;;;;;7383768;19;20032;-86
2022/10/25 08:26:43;;;;;;;8.02;2.25;;;15.60;99.90;;;;;;7393538;19;19924;-85
2022/10/25 08:29:12;;;;;;;7.53;1.42;;;15.60;99.90;;;;;;7402136;19;19929;-87
2022/10/25 08:31:43;;;;;;;8.73;2.40;;;15.50;99.90;;;;;;7404512;19;19940;-86
2022/10/25 08:34:12;;;;;;;15.32;4.03;;;15.60;99.90;;;;;;7401488;19;20035;-93
2022/10/25 08:36:41;;;;;;;15.25;3.47;;;15.70;99.90;;;;;;7405241;19;20085;-95
2022/10/25 08:39:10;;;;;;;6.32;1.17;;;15.80;99.90;;;;;;7406842;19;19921;-96
2022/10/25 08:41:48;;;;;;;10.95;3.30;;;15.70;99.90;;;;;;7405419;19;19935;-86
2022/10/25 08:44:23;;;;;;;9.57;2.05;;;15.70;99.90;;;;;;7401742;19;19965;-87
2022/10/25 08:47:02;;;;;;;7.25;1.02;;;15.80;99.90;;;;;;7404967;19;19922;-87
2022/10/25 08:49:40;;;;;;;10.63;3.15;;;15.80;99.90;;;;;;7403861;19;19910;-87
2022/10/25 08:52:19;;;;;;;12.20;3.72;;;15.80;99.90;;;;;;7394946;19;20010;-87
2022/10/25 08:54:48;;;;;;;7.15;2.50;;;15.80;99.90;;;;;;7403367;19;19974;-90
2022/10/25 08:57:24;;;;;;;11.90;3.22;;;15.80;99.90;;;;;;7404546;19;20263;-91
2022/10/25 08:59:55;;;;;;;11.18;2.80;;;15.80;99.90;;;;;;7404437;19;19927;-96
2022/10/25 09:02:35;;;;;;;8.20;2.58;;;15.70;99.90;;;;;;7419147;19;19934;-96
2022/10/25 09:05:11;;;;;;;9.93;3.17;;;15.70;99.90;;;;;;7403159;19;19914;-90
2022/10/25 09:07:57;;;;;;;10.65;3.88;;;15.70;99.90;;;;;;7402533;19;19951;-93
2022/10/25 09:10:37;;;;;;;11.88;3.38;;;15.80;99.90;;;;;;7402590;19;20328;-91
2022/10/25 09:13:12;;;;;;;10.73;3.90;;;15.80;99.90;;;;;;7401132;19;19914;-90
2022/10/25 09:15:54;;;;;;;9.90;3.78;;;15.70;99.90;;;;;;7403662;19;19922;-93
2022/10/25 09:18:32;;;;;;;;;;;15.70;99.90;;;;;;7404432;19;20264;-86
2022/10/25 09:21:07;;;;;;;10.68;4.13;;;15.70;99.90;;;;;;7403141;19;19922;-87
2022/10/25 09:23:36;;;;;;;9.05;3.47;;;15.90;99.90;;;;;;7408380;19;19918;-87
2022/10/25 09:26:09;;;;;;;11.65;3.65;;;16.00;99.90;;;;;;7409429;19;19918;-86
2022/10/25 09:28:52;;;;;;;10.82;3.15;;;16.20;99.90;;;;;;7409781;19;19918;-94
2022/10/25 09:31:24;;;;;;;10.88;3.13;;;16.30;99.90;;;;;;7414151;19;19918;-95
2022/10/25 09:34:01;;;;;;;11.05;2.83;;;16.30;99.90;;;;;;7427681;19;19939;-94
2022/10/25 09:36:35;;;;;;;9.13;3.47;;;16.40;99.90;;;;;;7419778;19;19919;-96
2022/10/25 09:39:13;;;;;;;12.02;3.05;;;16.50;99.90;;;;;;7414851;19;20333;-92
2022/10/25 09:41:45;;;;;;;7.40;2.90;;;16.70;99.90;;;;;;7409074;19;19918;-95
2022/10/25 09:44:18;;;;;;;7.55;1.58;;;16.50;99.90;;;;;;7432788;19;19913;-89
2022/10/25 09:46:53;;;;;;;6.75;2.80;;;16.60;99.90;;;;;;7427443;19;19919;-94
2022/10/25 09:49:31;;;;;;;5.68;2.05;;;16.70;99.90;;;;;;7411586;19;20372;-96
2022/10/25 09:52:07;;;;;;;7.57;3.15;;;16.80;99.90;;;;;;7409454;19;19919;-93
2022/10/25 09:54:41;;;;;;;5.75;2.17;;;16.70;99.90;;;;;;7410383;19;19958;-95
2022/10/25 09:57:10;;;;;;;6.88;1.88;;;16.60;99.90;;;;;;7417126;19;20316;-95
2022/10/25 09:59:39;;;;;;;6.20;1.70;;;16.60;99.90;;;;;;7413808;19;19947;-96
2022/10/25 10:02:12;;;;;;;7.28;2.20;;;16.60;99.90;;;;;;7409685;19;19934;-93
2022/10/25 10:04:43;;;;;;;9.88;3.97;;;16.60;99.90;;;;;;7406352;19;19922;-89
2022/10/25 10:07:19;;;;;;;7.55;2.45;;;16.70;99.90;;;;;;7409332;19;19907;-89
2022/10/25 10:09:49;;;;;;;7.43;2.25;;;16.70;99.90;;;;;;7407358;19;19926;-88
2022/10/25 10:12:24;;;;;;;7.25;2.10;;;16.80;99.90;;;;;;7404728;19;20510;-89
2022/10/25 10:15:00;;;;;;;6.68;2.60;;;16.80;99.90;;;;;;7402546;19;19922;-88
2022/10/25 10:17:32;;;;;;;11.30;2.03;;;16.70;99.90;;;;;;7408899;19;19910;-90
2022/10/25 10:20:14;;;;;;;9.57;2.83;;;16.80;99.90;;;;;;7407475;19;19918;-89
2022/10/25 10:22:49;;;;;;;9.80;1.58;;;16.90;99.90;;;;;;7409650;19;19919;-93
2022/10/25 10:25:24;;;;;;;6.72;2.28;;;16.80;99.90;;;;;;7408712;19;19921;-92
2022/10/25 10:27:55;;;;;;;11.60;2.28;;;16.80;99.90;;;;;;7409841;19;20592;-96
2022/10/25 10:30:27;;;;;;;7.82;1.40;;;16.70;99.90;;;;;;7409154;19;19914;-96
2022/10/25 10:33:02;;;;;;;10.18;1.70;;;16.80;99.90;;;;;;7407012;19;19978;-92
2022/10/25 10:35:36;;;;;;;3.50;1.45;;;16.80;99.90;;;;;;7410577;19;19923;-87
2022/10/25 10:38:22;;;;;;;7.88;2.05;;;16.80;99.90;;;;;;7406187;19;19919;-87
2022/10/25 10:40:53;;;;;;;7.82;1.92;;;16.90;99.90;;;;;;7410436;19;19915;-89
2022/10/25 10:43:33;;;;;;;5.15;1.63;;;17.00;99.90;;;;;;7407480;19;19922;-93
2022/10/25 10:46:06;;;;;;;7.07;1.80;;;17.00;99.90;;;;;;7410549;19;19919;-96
2022/10/25 10:48:39;;;;;;;6.20;1.95;;;17.00;99.90;;;;;;7414301;19;19911;-93
2022/10/25 10:51:11;;;;;;;5.75;1.77;;;17.00;99.90;;;;;;7413352;19;20335;-95
2022/10/25 10:53:42;;;;;;;6.28;1.35;;;16.90;99.90;;;;;;7419960;19;19915;-96
2022/10/25 10:56:19;;;;;;;4.50;1.17;;;16.80;99.90;;;;;;7425058;19;19915;-94
2022/10/25 10:58:51;;;;;;;4.45;0.95;;;16.70;99.90;;;;;;7411312;19;19978;-95
2022/10/25 11:01:31;;;;;;;5.70;2.20;;;16.60;99.90;;;;;;7415610;19;19933;-93
2022/10/25 11:04:02;;;;;;;5.28;1.63;;;16.50;99.90;;;;;;7411498;19;19911;-92
2022/10/25 11:06:35;;;;;;;4.00;0.80;;;16.60;99.90;;;;;;7407732;19;20351;-94
2022/10/25 11:09:19;;;;;;;5.03;1.40;;;16.60;99.90;;;;;;7409097;19;20350;-94
2022/10/25 11:12:07;;;;;;;5.68;1.15;;;16.70;99.90;;;;;;7406879;19;19982;-92
2022/10/25 11:14:36;;;;;;;8.27;1.55;;;16.60;99.90;;;;;;7410383;19;19931;-95
2022/10/25 11:17:10;;;;;;;6.07;1.83;;;16.60;99.90;;;;;;7407323;19;20269;-95
2022/10/25 11:20:07;;;;;;;7.03;1.10;;;16.60;99.90;;;;;;7416769;19;19915;-96
2022/10/25 11:22:48;;;;;;;6.65;1.42;;;16.60;99.90;;;;;;7405500;19;19922;-85
2022/10/25 11:25:30;;;;;;;7.78;1.50;;;16.60;99.90;;;;;;7403108;19;19918;-89
2022/10/25 11:28:19;;;;;;;6.15;1.90;;;16.60;99.90;;;;;;7444988;19;19907;-85
2022/10/25 11:30:57;;;;;;;6.68;1.83;;;16.70;99.90;;;;;;7422535;19;19931;-89
2022/10/25 11:33:34;;;;;;;5.35;2.05;;;16.70;99.90;;;;;;7407013;19;19925;-89
2022/10/25 11:36:13;;;;;;;8.25;1.30;;;17.00;99.90;;;;;;7402472;19;19929;-88
2022/10/25 11:38:57;;;;;;;5.72;2.05;;;17.20;99.90;;;;;;7405719;19;19914;-88
2022/10/25 11:41:40;;;;;;;7.85;2.80;;;17.40;99.90;;;;;;7405877;19;20332;-88
2022/10/25 11:44:26;;;;;;;8.98;2.45;;;17.40;99.90;;;;;;7403949;19;20283;-88
2022/10/25 11:47:03;;;;;;;6.43;2.05;;;17.40;99.90;;;;;;7404962;19;19929;-88
2022/10/25 11:49:44;;;;;;;7.13;1.45;;;17.50;99.90;;;;;;7405505;19;19918;-89
2022/10/25 11:52:40;;;;;;;6.25;1.55;;;17.50;99.90;;;;;;7406119;19;20663;-88
2022/10/25 11:55:23;;;;;;;6.82;1.50;;;17.40;99.90;;;;;;7406331;19;20256;-88
2022/10/25 11:58:00;;;;;;;7.05;1.40;;;17.30;99.90;;;;;;7405338;19;19927;-88
2022/10/25 12:00:39;;;;;;;5.15;1.13;;;17.20;99.90;;;;;;7404908;19;19981;-87
2022/10/25 12:03:25;;;;;;;5.82;1.30;;;17.20;99.90;;;;;;7407142;19;20262;-88
2022/10/25 12:06:06;;;;;;;6.13;1.70;;;17.10;99.90;;;;;;7402549;19;20307;-88
2022/10/25 12:08:46;;;;;;;6.93;1.20;;;17.10;99.90;;;;;;7405553;19;19985;-87
2022/10/25 12:11:22;;;;;;;4.75;1.00;;;17.00;99.90;;;;;;7403930;19;19914;-86
2022/10/25 12:13:56;;;;;;;9.93;3.97;;;17.00;99.90;;;;;;7404404;19;19915;-87
2022/10/25 12:16:26;;;;;;;4.90;1.27;;;17.00;99.90;;;;;;7405400;19;19926;-86
2022/10/25 12:19:04;;;;;;;5.30;1.52;;;17.00;99.90;;;;;;7406399;19;19922;-86
2022/10/25 12:21:43;;;;;;;6.18;2.38;;;17.00;99.90;;;;;;7404821;19;20392;-85
2022/10/25 12:24:19;;;;;;;5.85;1.10;;;17.00;99.90;;;;;;7403080;19;19923;-86
2022/10/25 12:26:54;;;;;;;5.20;1.50;;;16.90;99.90;;;;;;7404285;19;19925;-86
2022/10/25 12:29:31;;;;;;;3.92;1.30;;;16.90;99.90;;;;;;7402572;19;20344;-86
2022/10/25 12:32:04;;;;;;;9.95;4.15;;;16.90;99.90;;;;;;7404911;19;19939;-87
2022/10/25 12:34:41;;;;;;;7.43;2.15;;;16.90;99.90;;;;;;7402071;19;19963;-87
2022/10/25 12:37:16;;;;;;;9.93;3.05;;;16.90;99.90;;;;;;7401648;19;19919;-86
2022/10/25 12:39:47;;;;;;;4.53;1.10;;;16.90;99.90;;;;;;7404254;19;19923;-86
2022/10/25 12:42:24;;;;;;;7.55;1.50;;;16.90;99.90;;;;;;7405590;19;19914;-86
2022/10/25 12:45:25;;;;;;;5.53;1.23;;;17.00;99.90;;;;;;7403386;19;20003;-87
2022/10/25 12:48:06;;;;;;;4.15;1.00;;;17.10;99.90;;;;;;7405596;19;19925;-86
2022/10/25 12:51:16;;;;;;;11.85;2.83;;;17.20;99.90;;;;;;7402838;19;20312;-84
2022/10/25 12:54:16;;;;;;;5.75;1.20;;;17.30;99.90;;;;;;7401770;19;19928;-84
2022/10/25 12:56:56;;;;;;;6.38;0.80;;;17.40;99.90;;;;;;7406243;19;19931;-84
2022/10/25 12:59:46;;;;;;;7.97;2.10;;;17.40;99.90;;;;;;7407665;19;19922;-87
2022/10/25 13:02:40;;;;;;;4.30;1.27;;;17.40;99.90;;;;;;7406913;19;19918;-85
2022/10/25 13:05:33;;;;;;;7.53;1.35;;;17.30;99.90;;;;;;7406444;19;20345;-87
2022/10/25 13:08:05;;;;;;;4.97;1.65;;;17.20;99.90;;;;;;7410587;19;19914;-90
2022/10/25 13:10:41;;;;;;;7.70;0.98;;;17.40;99.90;;;;;;7410910;19;19933;-85
2022/10/25 13:13:20;;;;;;;57.58;9.07;;;17.60;99.90;;;;;;7408439;19;19997;-85
2022/10/25 13:15:53;;;;;;;1316.28;167.65;;;17.50;99.90;;;;;;7410692;19;19931;-91